^^
Paulen-Weather Station Historical Data
Daily Summary for May 03, 2022 Units:  English    Metric   Both
Daily Weekly Monthly Yearly Custom
  High: Low: Average:
Temperature: 50 °F 42.8 °F 46 °F
Dew Point: 37.4 °F 30.2 °F 33.1 °F
Humidity: 65% 50% 60%
Wind Speed: 18mph 7.5mph 11.1mph
Wind Gust: 14.9mph - -
Wind- - ENE
Pressure: 30.1 in 29.9 in -
Precipitation: 0 in    
Historical Graphs
 
 
Tabular Data for May 03, 2022
Time Temperature Dew Point Pressure Wind Wind Speed Wind Gust Humidity Rainfall Rate (Hourly) solar
00:04 48.2 °F 35.6 °F 29.9 in NE 13 mph 11.8 mph 62% 0 in 0 W/m2
00:09 48.2 °F 35.6 °F 29.9 in NE 14.3 mph 13 mph 62% 0 in 0 W/m2
00:14 46.4 °F 35.6 °F 29.9 in NE 14.9 mph 13.7 mph 62% 0 in 0 W/m2
00:19 46.4 °F 35.6 °F 30 in NE 13.7 mph 13 mph 62% 0 in 0 W/m2
00:24 46.4 °F 33.8 °F 30 in NE 12.4 mph 10.6 mph 61% 0 in 0 W/m2
00:29 46.4 °F 35.6 °F 30 in NE 13.7 mph 12.4 mph 62% 0 in 0 W/m2
00:34 46.4 °F 35.6 °F 30 in NE 13 mph 13.7 mph 62% 0 in 0 W/m2
00:39 46.4 °F 33.8 °F 30 in NE 11.2 mph 9.9 mph 62% 0 in 0 W/m2
00:44 46.4 °F 33.8 °F 30 in NE 11.8 mph 9.3 mph 62% 0 in 0 W/m2
00:49 46.4 °F 33.8 °F 30 in NE 11.8 mph 9.3 mph 62% 0 in 0 W/m2
00:54 46.4 °F 33.8 °F 30 in NE 11.2 mph 8.7 mph 61% 0 in 0 W/m2
00:59 46.4 °F 33.8 °F 30 in ENE 11.2 mph 9.3 mph 61% 0 in 0 W/m2
01:04 46.4 °F 33.8 °F 30 in NE 11.8 mph 10.6 mph 59% 0 in 0 W/m2
01:09 46.4 °F 33.8 °F 30 in NE 10.6 mph 8.1 mph 61% 0 in 0 W/m2
01:14 46.4 °F 33.8 °F 30 in ENE 10.6 mph 8.1 mph 60% 0 in 0 W/m2
01:19 46.4 °F 32 °F 30 in ENE 10.6 mph 11.8 mph 59% 0 in 0 W/m2
01:24 46.4 °F 32 °F 30 in NE 8.7 mph 6.8 mph 59% 0 in 0 W/m2
01:29 46.4 °F 33.8 °F 30 in NE 8.7 mph 6.8 mph 60% 0 in 0 W/m2
01:34 46.4 °F 32 °F 30 in NE 8.7 mph 8.1 mph 59% 0 in 0 W/m2
01:39 46.4 °F 32 °F 30 in NE 8.7 mph 9.3 mph 59% 0 in 0 W/m2
01:44 46.4 °F 32 °F 30 in NE 9.9 mph 9.3 mph 59% 0 in 0 W/m2
01:49 44.6 °F 32 °F 30 in NE 10.6 mph 8.7 mph 59% 0 in 0 W/m2
01:54 44.6 °F 32 °F 30 in NE 11.8 mph 10.6 mph 60% 0 in 0 W/m2
01:59 44.6 °F 32 °F 30 in NE 11.8 mph 10.6 mph 59% 0 in 0 W/m2
02:04 44.6 °F 32 °F 30 in NE 11.8 mph 9.9 mph 59% 0 in 0 W/m2
02:09 44.6 °F 32 °F 30 in NE 11.2 mph 9.9 mph 60% 0 in 0 W/m2
02:14 44.6 °F 32 °F 30 in NE 10.6 mph 8.7 mph 60% 0 in 0 W/m2
02:19 44.6 °F 32 °F 30 in NE 10.6 mph 9.9 mph 61% 0 in 0 W/m2
02:24 44.6 °F 32 °F 30 in NE 10.6 mph 9.9 mph 60% 0 in 0 W/m2
02:29 44.6 °F 32 °F 30 in NE 11.2 mph 8.1 mph 61% 0 in 0 W/m2
02:34 44.6 °F 32 °F 30 in NE 9.9 mph 8.7 mph 61% 0 in 0 W/m2
02:39 44.6 °F 32 °F 30 in NE 10.6 mph 8.1 mph 59% 0 in 0 W/m2
02:44 44.6 °F 32 °F 30 in NE 9.9 mph 8.1 mph 60% 0 in 0 W/m2
02:49 44.6 °F 32 °F 30 in NE 10.6 mph 8.7 mph 60% 0 in 0 W/m2
02:54 44.6 °F 32 °F 30 in NE 11.2 mph 8.7 mph 59% 0 in 0 W/m2
02:59 44.6 °F 32 °F 30 in NE 9.9 mph 8.1 mph 59% 0 in 0 W/m2
03:04 44.6 °F 32 °F 30 in NE 9.3 mph 8.1 mph 60% 0 in 0 W/m2
03:09 44.6 °F 32 °F 30 in NE 9.3 mph 8.1 mph 60% 0 in 0 W/m2
03:14 44.6 °F 32 °F 30 in NE 9.3 mph 7.5 mph 60% 0 in 0 W/m2
03:19 44.6 °F 32 °F 30 in NE 8.7 mph 8.1 mph 59% 0 in 0 W/m2
03:24 44.6 °F 32 °F 30 in NE 8.7 mph 6.8 mph 59% 0 in 0 W/m2
03:29 44.6 °F 32 °F 30 in NE 8.1 mph 6.8 mph 60% 0 in 0 W/m2
03:34 44.6 °F 30.2 °F 30 in NE 9.9 mph 7.5 mph 59% 0 in 0 W/m2
03:39 44.6 °F 30.2 °F 30 in NE 11.2 mph 8.7 mph 59% 0 in 0 W/m2
03:44 44.6 °F 30.2 °F 30 in NE 9.3 mph 8.7 mph 59% 0 in 0 W/m2
03:49 44.6 °F 30.2 °F 30 in NE 9.3 mph 8.7 mph 60% 0 in 0 W/m2
03:54 44.6 °F 30.2 °F 30 in NE 8.7 mph 6.8 mph 60% 0 in 0 W/m2
03:59 44.6 °F 30.2 °F 30 in NE 10.6 mph 9.3 mph 59% 0 in 0 W/m2
04:04 42.8 °F 30.2 °F 30 in NE 10.6 mph 9.3 mph 59% 0 in 0 W/m2
04:09 42.8 °F 30.2 °F 30 in NE 9.3 mph 8.1 mph 60% 0 in 0 W/m2
04:14 42.8 °F 30.2 °F 30 in NE 8.1 mph 7.5 mph 60% 0 in 0 W/m2
04:19 42.8 °F 32 °F 30 in NE 8.7 mph 8.1 mph 62% 0 in 0 W/m2
04:24 42.8 °F 30.2 °F 30 in NE 7.5 mph 6.8 mph 60% 0 in 0 W/m2
04:29 42.8 °F 30.2 °F 30 in NE 8.1 mph 7.5 mph 61% 0 in 0 W/m2
04:34 42.8 °F 30.2 °F 30 in NE 9.3 mph 8.7 mph 60% 0 in 0 W/m2
04:39 42.8 °F 30.2 °F 30 in NE 9.3 mph 8.1 mph 61% 0 in 0 W/m2
04:44 42.8 °F 30.2 °F 30 in NE 8.7 mph 7.5 mph 61% 0 in 0 W/m2
04:49 42.8 °F 30.2 °F 30 in NE 10.6 mph 8.7 mph 61% 0 in 0 W/m2
04:54 42.8 °F 30.2 °F 30 in NE 9.9 mph 7.5 mph 61% 0 in 0 W/m2
04:59 42.8 °F 30.2 °F 30 in NE 8.7 mph 6.8 mph 61% 0 in 0 W/m2
05:04 42.8 °F 30.2 °F 30 in NE 9.3 mph 7.5 mph 62% 0 in 0 W/m2
05:09 42.8 °F 30.2 °F 30 in NE 9.3 mph 8.1 mph 62% 0 in 0 W/m2
05:14 42.8 °F 30.2 °F 30 in NE 8.7 mph 6.8 mph 61% 0 in 0 W/m2
05:19 42.8 °F 32 °F 30 in ENE 10.6 mph 9.3 mph 62% 0 in 0 W/m2
05:24 42.8 °F 30.2 °F 30 in ENE 11.2 mph 9.3 mph 61% 0 in 5 W/m2
05:29 42.8 °F 30.2 °F 30 in ENE 12.4 mph 11.2 mph 60% 0 in 7 W/m2
05:34 42.8 °F 30.2 °F 30 in NE 9.9 mph 8.1 mph 60% 0 in 9 W/m2
05:39 42.8 °F 30.2 °F 30 in NE 9.9 mph 9.9 mph 60% 0 in 14 W/m2
05:44 42.8 °F 30.2 °F 30 in ENE 11.2 mph 9.9 mph 59% 0 in 21 W/m2
05:49 42.8 °F 30.2 °F 30 in ENE 10.6 mph 8.1 mph 60% 0 in 26 W/m2
05:54 42.8 °F 30.2 °F 30 in NE 9.9 mph 8.1 mph 60% 0 in 33 W/m2
05:59 42.8 °F 32 °F 30.1 in NE 8.7 mph 7.5 mph 62% 0 in 42 W/m2
06:04 42.8 °F 32 °F 30.1 in ENE 11.2 mph 9.9 mph 61% 0 in 53 W/m2
06:09 44.6 °F 32 °F 30.1 in NE 10.6 mph 9.3 mph 61% 0 in 63 W/m2
06:14 44.6 °F 32 °F 30.1 in ENE 11.2 mph 10.6 mph 60% 0 in 76 W/m2
06:19 44.6 °F 32 °F 30.1 in ENE 11.8 mph 11.8 mph 61% 0 in 84 W/m2
06:24 44.6 °F 32 °F 30.1 in ENE 11.2 mph 10.6 mph 63% 0 in 95 W/m2
06:29 44.6 °F 32 °F 30.1 in ENE 10.6 mph 9.3 mph 62% 0 in 100 W/m2
06:34 44.6 °F 32 °F 30.1 in ENE 11.2 mph 9.3 mph 61% 0 in 111 W/m2
06:39 44.6 °F 32 °F 30.1 in ENE 11.2 mph 10.6 mph 61% 0 in 111 W/m2
06:44 44.6 °F 32 °F 30.1 in ENE 11.2 mph 9.9 mph 62% 0 in 113 W/m2
06:49 44.6 °F 32 °F 30.1 in ENE 10.6 mph 8.7 mph 63% 0 in 132 W/m2
06:54 44.6 °F 32 °F 30.1 in ENE 10.6 mph 9.9 mph 60% 0 in 141 W/m2
06:59 44.6 °F 32 °F 30.1 in ENE 11.2 mph 11.8 mph 63% 0 in 155 W/m2
07:04 44.6 °F 32 °F 30.1 in ENE 11.8 mph 11.8 mph 62% 0 in 160 W/m2
07:09 44.6 °F 32 °F 30.1 in ENE 11.8 mph 11.2 mph 62% 0 in 167 W/m2
07:14 44.6 °F 32 °F 30.1 in ENE 11.8 mph 10.6 mph 62% 0 in 179 W/m2
07:19 44.6 °F 32 °F 30.1 in ENE 11.8 mph 10.6 mph 62% 0 in 192 W/m2
07:24 44.6 °F 32 °F 30.1 in ENE 12.4 mph 11.2 mph 62% 0 in 200 W/m2
07:29 44.6 °F 32 °F 30.1 in ENE 11.2 mph 11.2 mph 61% 0 in 213 W/m2
07:34 44.6 °F 32 °F 30.1 in ENE 11.8 mph 9.9 mph 61% 0 in 223 W/m2
07:39 44.6 °F 32 °F 30.1 in ENE 12.4 mph 11.8 mph 59% 0 in 236 W/m2
07:44 44.6 °F 32 °F 30.1 in ENE 13 mph 12.4 mph 59% 0 in 246 W/m2
07:49 44.6 °F 32 °F 30.1 in ENE 12.4 mph 11.8 mph 59% 0 in 257 W/m2
07:54 44.6 °F 32 °F 30.1 in ENE 13.7 mph 13 mph 58% 0 in 267 W/m2
07:59 44.6 °F 32 °F 30.1 in ENE 13 mph 11.8 mph 59% 0 in 281 W/m2
08:04 44.6 °F 32 °F 30.1 in ENE 14.3 mph 13 mph 58% 0 in 294 W/m2
08:09 46.4 °F 32 °F 30.1 in ENE 13 mph 12.4 mph 57% 0 in 304 W/m2
08:14 46.4 °F 32 °F 30.1 in ENE 13 mph 12.4 mph 57% 0 in 311 W/m2
08:19 46.4 °F 32 °F 30.1 in ENE 11.8 mph 11.2 mph 59% 0 in 320 W/m2
08:24 46.4 °F 32 °F 30.1 in ENE 10.6 mph 9.9 mph 58% 0 in 336 W/m2
08:29 46.4 °F 32 °F 30.1 in ENE 9.9 mph 9.9 mph 57% 0 in 350 W/m2
08:34 46.4 °F 32 °F 30.1 in ENE 9.3 mph 8.7 mph 57% 0 in 350 W/m2
08:39 48.2 °F 32 °F 30.1 in ENE 11.2 mph 12.4 mph 55% 0 in 359 W/m2
08:44 48.2 °F 30.2 °F 30.1 in E 13.7 mph 11.2 mph 51% 0 in 380 W/m2
08:49 48.2 °F 30.2 °F 30.1 in ENE 13 mph 12.4 mph 50% 0 in 385 W/m2
08:54 48.2 °F 32 °F 30.1 in E 13.7 mph 12.4 mph 51% 0 in 408 W/m2
08:59 48.2 °F 32 °F 30.1 in E 12.4 mph 11.2 mph 52% 0 in 422 W/m2
09:04 48.2 °F 32 °F 30.1 in ENE 14.3 mph 13 mph 50% 0 in 431 W/m2
09:09 48.2 °F 32 °F 30.1 in E 13.7 mph 11.2 mph 51% 0 in 438 W/m2
09:14 48.2 °F 32 °F 30.1 in E 13.7 mph 11.8 mph 52% 0 in 448 W/m2
09:19 48.2 °F 32 °F 30.1 in ENE 15.5 mph 12.4 mph 52% 0 in 457 W/m2
09:24 48.2 °F 32 °F 30.1 in ENE 13.7 mph 11.8 mph 51% 0 in 466 W/m2
09:29 48.2 °F 32 °F 30.1 in ENE 14.9 mph 13 mph 51% 0 in 478 W/m2
09:38 48.2 °F 32 °F 30.1 in ENE 18 mph 14.9 mph 53% 0 in 499 W/m2
09:44 48.2 °F 33.8 °F 30.1 in ENE 13.7 mph 11.2 mph 54% 0 in 512 W/m2
09:49 48.2 °F 33.8 °F 30.1 in E 15.5 mph 14.3 mph 55% 0 in 520 W/m2
09:54 48.2 °F 33.8 °F 30.1 in E 13 mph 11.2 mph 56% 0 in 529 W/m2
09:59 50 °F 35.6 °F 30.1 in E 10.6 mph 9.3 mph 58% 0 in 541 W/m2
10:04 50 °F 33.8 °F 30.1 in E 12.4 mph 10.6 mph 57% 0 in 550 W/m2
10:09 48.2 °F 33.8 °F 30.1 in E 12.4 mph 10.6 mph 57% 0 in 559 W/m2
10:14 48.2 °F 33.8 °F 30.1 in E 11.2 mph 9.3 mph 56% 0 in 568 W/m2
10:19 48.2 °F 33.8 °F 30.1 in E 13 mph 9.9 mph 57% 0 in 575 W/m2
10:24 48.2 °F 35.6 °F 30.1 in E 12.4 mph 9.9 mph 58% 0 in 585 W/m2
10:29 48.2 °F 35.6 °F 30.1 in E 11.8 mph 10.6 mph 58% 0 in 596 W/m2
10:34 48.2 °F 33.8 °F 30.1 in ENE 13.7 mph 12.4 mph 57% 0 in 596 W/m2
10:39 48.2 °F 35.6 °F 30.1 in E 13 mph 11.2 mph 58% 0 in 610 W/m2
10:44 48.2 °F 33.8 °F 30.1 in E 13 mph 9.9 mph 58% 0 in 619 W/m2
10:49 48.2 °F 35.6 °F 30.1 in E 13 mph 11.2 mph 60% 0 in 624 W/m2
10:54 48.2 °F 35.6 °F 30.1 in ESE 12.4 mph 9.9 mph 58% 0 in 631 W/m2
10:59 48.2 °F 35.6 °F 30.1 in ESE 11.8 mph 10.6 mph 58% 0 in 640 W/m2
11:04 48.2 °F 33.8 °F 30.1 in E 12.4 mph 11.2 mph 57% 0 in 647 W/m2
11:09 48.2 °F 33.8 °F 30.1 in E 11.8 mph 11.2 mph 57% 0 in 654 W/m2
11:14 48.2 °F 33.8 °F 30.1 in E 11.2 mph 9.3 mph 57% 0 in 661 W/m2
11:19 48.2 °F 35.6 °F 30.1 in ENE 11.2 mph 9.3 mph 57% 0 in 666 W/m2
11:24 48.2 °F 35.6 °F 30.1 in E 11.2 mph 10.6 mph 58% 0 in 673 W/m2
11:29 48.2 °F 35.6 °F 30.1 in E 11.8 mph 9.9 mph 58% 0 in 679 W/m2
11:34 48.2 °F 35.6 °F 30.1 in E 11.8 mph 9.3 mph 59% 0 in 684 W/m2
11:39 48.2 °F 35.6 °F 30.1 in ESE 11.2 mph 8.7 mph 60% 0 in 687 W/m2
11:44 48.2 °F 35.6 °F 30.1 in E 11.2 mph 9.9 mph 60% 0 in 693 W/m2
11:49 48.2 °F 35.6 °F 30.1 in E 11.2 mph 8.7 mph 60% 0 in 696 W/m2
11:54 48.2 °F 35.6 °F 30.1 in ESE 11.8 mph 9.9 mph 60% 0 in 700 W/m2
11:59 48.2 °F 35.6 °F 30.1 in ESE 10.6 mph 9.3 mph 62% 0 in 707 W/m2
12:04 48.2 °F 35.6 °F 30.1 in E 11.2 mph 10.6 mph 61% 0 in 710 W/m2
12:09 48.2 °F 35.6 °F 30.1 in ESE 11.2 mph 9.9 mph 61% 0 in 715 W/m2
12:14 48.2 °F 35.6 °F 30.1 in ESE 11.8 mph 9.9 mph 60% 0 in 719 W/m2
12:19 48.2 °F 35.6 °F 30.1 in ESE 10.6 mph 10.6 mph 62% 0 in 722 W/m2
12:24 48.2 °F 35.6 °F 30.1 in E 11.2 mph 9.9 mph 61% 0 in 724 W/m2
12:29 48.2 °F 35.6 °F 30.1 in ESE 11.2 mph 9.9 mph 62% 0 in 728 W/m2
12:34 48.2 °F 35.6 °F 30.1 in E 10.6 mph 9.9 mph 62% 0 in 729 W/m2
12:39 48.2 °F 35.6 °F 30.1 in E 9.9 mph 8.7 mph 61% 0 in 731 W/m2
12:44 48.2 °F 35.6 °F 30.1 in E 9.3 mph 9.3 mph 60% 0 in 737 W/m2
12:49 48.2 °F 35.6 °F 30.1 in E 9.3 mph 9.3 mph 60% 0 in 737 W/m2
12:54 48.2 °F 35.6 °F 30.1 in E 9.9 mph 8.7 mph 59% 0 in 738 W/m2
12:59 48.2 °F 35.6 °F 30.1 in ESE 9.9 mph 8.1 mph 60% 0 in 740 W/m2
13:04 48.2 °F 35.6 °F 30.1 in ESE 10.6 mph 8.7 mph 60% 0 in 740 W/m2
13:09 48.2 °F 35.6 °F 30.1 in ESE 9.3 mph 8.7 mph 61% 0 in 740 W/m2
13:14 48.2 °F 35.6 °F 30.1 in SE 10.6 mph 8.7 mph 61% 0 in 744 W/m2
13:19 48.2 °F 35.6 °F 30.1 in ESE 9.9 mph 8.7 mph 62% 0 in 744 W/m2
13:24 48.2 °F 37.4 °F 30.1 in SE 9.3 mph 8.1 mph 62% 0 in 744 W/m2
13:29 48.2 °F 35.6 °F 30.1 in ESE 10.6 mph 9.3 mph 61% 0 in 745 W/m2
13:34 48.2 °F 37.4 °F 30.1 in SE 8.1 mph 7.5 mph 62% 0 in 745 W/m2
13:39 48.2 °F 37.4 °F 30.1 in E 10.6 mph 8.1 mph 62% 0 in 747 W/m2
13:44 48.2 °F 37.4 °F 30.1 in SE 9.9 mph 9.3 mph 62% 0 in 747 W/m2
13:49 48.2 °F 37.4 °F 30.1 in SE 9.9 mph 8.1 mph 63% 0 in 747 W/m2
13:54 48.2 °F 37.4 °F 30.1 in SE 9.3 mph 8.1 mph 63% 0 in 751 W/m2
13:59 48.2 °F 37.4 °F 30.1 in SE 11.2 mph 10.6 mph 63% 0 in 751 W/m2
14:04 48.2 °F 37.4 °F 30.1 in SE 11.2 mph 9.3 mph 64% 0 in 738 W/m2
14:09 48.2 °F 37.4 °F 30.1 in SE 9.9 mph 9.9 mph 64% 0 in 737 W/m2
14:14 48.2 °F 37.4 °F 30.1 in SE 12.4 mph 11.2 mph 65% 0 in 737 W/m2
14:19 48.2 °F 37.4 °F 30.1 in ESE 11.8 mph 9.9 mph 63% 0 in 733 W/m2
Compliments of Weather Underground - 2 mb